M I D A S
Marine Information and Data Acquisition System
Tripno 1130 of the Zeeleeuw from 2006-07-03 08:53:43 to 2006-07-03 12:58:50
Back to CruiseResearch ActivitiesStationsMapUnderway DataData graphs

EquipmentUnitsComments
TimeDGPSUTC
LatitudeDGPSDM.mWGS84
LongitudeDGPSDM.mWGS84
SpeedMeteo Stationm/sRelative wind speed
DirectionMeteo StationdegRelative wind direction
TemperatureMeteo Stationdeg CelciusAir temperature
PressureMeteo StationPaAtmospheric pressure
HumidityMeteo Station%Relative humidity
Missing or incorrect values are displayed as -999
Metereological data collected by the RV Zeeleeuw from 2006-07-03 08:50:50 to 2006-07-03 13:09:31
                                                                                    Next 1000 lines
Time Latitude Longitude Speed Direction Temperature Pressure Humidity
2006-07-03 08:51:00 51°13.6 2°56.1 1.8 317 26.2 101610 37
2006-07-03 08:51:05 51°13.6 2°56.1 2.3 322 26.3 101610 37
2006-07-03 08:51:10 51°13.6 2°56.1 2.8 321 26.3 101610 37
2006-07-03 08:51:15 51°13.6 2°56.1 2.9 325 26.3 101610 37
2006-07-03 08:51:20 51°13.6 2°56.1 3.7 331 26.3 101610 37
2006-07-03 08:51:25 51°13.6 2°56.1 3 327 26.3 101610 37
2006-07-03 08:51:30 51°13.6 2°56.1 3.5 322 26.3 101610 37
2006-07-03 08:51:34 51°13.599 2°56.1 2.9 327 26.3 101610 37
2006-07-03 08:51:40 51°13.599 2°56.1 2.9 325 26.3 101610 37
2006-07-03 08:51:45 51°13.599 2°56.1 3.3 282 26.3 101610 37
2006-07-03 08:51:50 51°13.599 2°56.1 2.8 332 26.3 101610 37
2006-07-03 08:51:55 51°13.599 2°56.1 3 328 26.3 101610 37
2006-07-03 08:52:00 51°13.599 2°56.1 2.3 321 26.3 101610 37
2006-07-03 08:52:04 51°13.599 2°56.1 1.7 281 26.3 101610 36
2006-07-03 08:52:10 51°13.599 2°56.1 1.4 327 26.3 101610 36
2006-07-03 08:52:15 51°13.599 2°56.099 1.3 345 26.3 101610 37
2006-07-03 08:52:20 51°13.599 2°56.098 2.2 34 26.3 101610 37
2006-07-03 08:52:25 51°13.599 2°56.096 1.9 326 26.4 101610 37
2006-07-03 08:52:30 51°13.6 2°56.094 2.3 328 26.4 101610 37
2006-07-03 08:52:35 51°13.601 2°56.09 2.5 323 26.4 101610 37
2006-07-03 08:52:40 51°13.602 2°56.085 1.7 325 26.4 101610 37
2006-07-03 08:52:45 51°13.603 2°56.08 1.5 315 26.4 101610 37
2006-07-03 08:52:51 51°13.605 2°56.072 1.5 320 26.4 101610 37
2006-07-03 08:52:56 51°13.607 2°56.066 1.5 284 26.4 101610 36
2006-07-03 08:53:01 51°13.609 2°56.058 1.8 341 26.4 101610 36
2006-07-03 08:53:06 51°13.611 2°56.05 1.7 350 26.4 101610 37
2006-07-03 08:53:10 51°13.613 2°56.043 1.1 346 26.4 101610 37
2006-07-03 08:53:16 51°13.616 2°56.033 1 347 26.4 101610 37
2006-07-03 08:53:21 51°13.618 2°56.024 0.5 4 26.4 101610 37
2006-07-03 08:53:26 51°13.62 2°56.014 0.5 360 26.4 101610 37
2006-07-03 08:53:31 51°13.623 2°56.005 1.2 244 26.4 101610 37
2006-07-03 08:53:35 51°13.625 2°55.997 1.1 29 26.4 101610 36
2006-07-03 08:53:41 51°13.628 2°55.985 1.1 34 26.4 101610 36
2006-07-03 08:53:46 51°13.631 2°55.975 1.4 286 26.5 101610 36
2006-07-03 08:53:51 51°13.635 2°55.964 1.5 251 26.5 101610 36
2006-07-03 08:53:56 51°13.638 2°55.954 1.7 252 26.5 101610 37
2006-07-03 08:54:01 51°13.642 2°55.943 1.7 254 26.5 101610 37
2006-07-03 08:54:06 51°13.646 2°55.933 1.7 282 26.5 101610 37
2006-07-03 08:54:11 51°13.649 2°55.922 1.1 261 26.5 101610 37
2006-07-03 08:54:16 51°13.653 2°55.911 1.1 264 26.5 101610 37
2006-07-03 08:54:21 51°13.657 2°55.901 0.8 262 26.5 101610 37
2006-07-03 08:54:26 51°13.661 2°55.89 1.1 286 26.6 101610 37
2006-07-03 08:54:31 51°13.665 2°55.88 1.3 248 26.6 101610 37
2006-07-03 08:54:36 51°13.668 2°55.869 1.7 287 26.6 101610 36
2006-07-03 08:54:41 51°13.672 2°55.859 1.5 258 26.6 101610 36
2006-07-03 08:54:46 51°13.675 2°55.848 1.8 282 26.6 101610 36
2006-07-03 08:54:50 51°13.678 2°55.839 1.1 241 26.6 101610 36
2006-07-03 08:54:55 51°13.681 2°55.829 0.7 282 26.6 101610 36
2006-07-03 08:55:01 51°13.684 2°55.818 0.7 326 26.6 101610 36
2006-07-03 08:55:06 51°13.687 2°55.809 1 329 26.6 101610 36
2006-07-03 08:55:10 51°13.689 2°55.802 1.4 339 26.6 101610 36
2006-07-03 08:55:15 51°13.691 2°55.794 1.7 343 26.6 101610 36
2006-07-03 08:55:20 51°13.693 2°55.785 1.8 349 26.6 101610 36
2006-07-03 08:55:25 51°13.694 2°55.778 1.6 349 26.7 101610 36
2006-07-03 08:55:30 51°13.696 2°55.771 2.2 336 26.7 101610 36
2006-07-03 08:55:35 51°13.697 2°55.765 2.1 335 26.7 101610 36
2006-07-03 08:55:40 51°13.698 2°55.761 2.5 340 26.7 101610 36
2006-07-03 08:55:45 51°13.699 2°55.757 2.4 341 26.7 101610 35
2006-07-03 08:55:50 51°13.699 2°55.756 2.4 329 26.7 101610 35
2006-07-03 08:55:55 51°13.7 2°55.755 2.7 337 26.7 101600 36
2006-07-03 08:56:00 51°13.7 2°55.755 3.1 335 26.7 101600 36
2006-07-03 08:56:04 51°13.701 2°55.755 3.6 340 26.7 101610 36
2006-07-03 08:56:10 51°13.702 2°55.755 3 346 26.7 101610 36
2006-07-03 08:56:15 51°13.703 2°55.756 2.9 350 26.7 101610 36
2006-07-03 08:56:20 51°13.704 2°55.757 2.3 351 26.7 101610 36
2006-07-03 08:56:25 51°13.705 2°55.758 2.5 3 26.6 101610 35
2006-07-03 08:56:30 51°13.706 2°55.758 2 7 26.6 101610 35
2006-07-03 08:56:33 51°13.706 2°55.758 2.1 8 26.6 101610 36
2006-07-03 08:56:40 51°13.706 2°55.756 2.4 12 26.6 101610 36
2006-07-03 08:56:45 51°13.705 2°55.755 2.4 17 26.5 101600 36
2006-07-03 08:56:50 51°13.704 2°55.753 3.3 24 26.5 101600 36
2006-07-03 08:56:55 51°13.703 2°55.751 4 27 26.4 101610 36
2006-07-03 08:57:00 51°13.701 2°55.749 3.2 27 26.4 101610 36
2006-07-03 08:57:05 51°13.7 2°55.746 4 26 26.4 101600 36
2006-07-03 08:57:11 51°13.698 2°55.744 5 24 26.4 101600 36
2006-07-03 08:57:16 51°13.696 2°55.742 4.8 22 26.4 101610 37
2006-07-03 08:57:21 51°13.696 2°55.741 4.7 25 26.4 101610 37
2006-07-03 08:57:26 51°13.695 2°55.74 4.5 26 26.3 101610 36
2006-07-03 08:57:30 51°13.695 2°55.74 4 26 26.3 101610 36
2006-07-03 08:57:36 51°13.696 2°55.739 3.8 27 26.2 101610 36
2006-07-03 08:57:41 51°13.698 2°55.739 3.3 27 26.2 101610 36
2006-07-03 08:57:46 51°13.699 2°55.738 3.4 27 26.2 101600 35
2006-07-03 08:57:50 51°13.701 2°55.737 3.2 35 26.2 101600 35
2006-07-03 08:57:56 51°13.705 2°55.734 2.9 33 26.1 101610 36
2006-07-03 08:58:01 51°13.709 2°55.731 2.6 37 26.1 101610 36
2006-07-03 08:58:06 51°13.714 2°55.728 2.5 37 26.1 101610 35
2006-07-03 08:58:10 51°13.719 2°55.724 2.2 24 26.1 101610 35
2006-07-03 08:58:15 51°13.725 2°55.719 1.9 23 26 101610 35
2006-07-03 08:58:20 51°13.732 2°55.713 1.7 16 26 101610 35
2006-07-03 08:58:25 51°13.74 2°55.707 2 10 26 101610 36
2006-07-03 08:58:30 51°13.748 2°55.7 2.3 6 26 101610 36
2006-07-03 08:58:34 51°13.755 2°55.694 2.3 10 26 101610 36
2006-07-03 08:58:40 51°13.766 2°55.684 2.7 346 26 101610 36
2006-07-03 08:58:45 51°13.775 2°55.676 2.6 354 25.9 101610 36
2006-07-03 08:58:50 51°13.785 2°55.668 3.9 350 25.9 101610 36
2006-07-03 08:58:54 51°13.793 2°55.661 4 351 25.9 101610 36
2006-07-03 08:59:00 51°13.805 2°55.65 4 342 25.9 101610 36
2006-07-03 08:59:05 51°13.816 2°55.641 3.8 343 25.9 101610 37
2006-07-03 08:59:10 51°13.826 2°55.633 3.8 345 25.9 101610 37
2006-07-03 08:59:15 51°13.837 2°55.624 3.6 339 25.9 101610 38
2006-07-03 08:59:19 51°13.845 2°55.618 4.5 339 25.9 101610 38
2006-07-03 08:59:25 51°13.857 2°55.609 4.8 344 25.8 101610 38
2006-07-03 08:59:30 51°13.867 2°55.601 4 354 25.8 101610 38
2006-07-03 08:59:35 51°13.877 2°55.593 5.4 354 25.8 101610 38
2006-07-03 08:59:40 51°13.887 2°55.586 3.4 356 25.8 101610 38
2006-07-03 08:59:45 51°13.897 2°55.579 3.3 355 25.8 101610 39
2006-07-03 08:59:50 51°13.907 2°55.572 3.4 351 25.8 101610 39
2006-07-03 08:59:55 51°13.916 2°55.565 3.1 354 25.8 101610 38
2006-07-03 09:00:00 51°13.926 2°55.558 3.1 351 25.8 101610 38
2006-07-03 09:00:05 51°13.936 2°55.551 3.3 350 25.7 101610 38
2006-07-03 09:00:10 51°13.946 2°55.544 3.5 349 25.7 101610 38
2006-07-03 09:00:15 51°13.955 2°55.537 3.6 348 25.7 101610 38
2006-07-03 09:00:20 51°13.965 2°55.53 4.4 350 25.7 101610 38
2006-07-03 09:00:25 51°13.974 2°55.523 4.8 356 25.6 101610 39
2006-07-03 09:00:30 51°13.984 2°55.516 3 1 25.6 101610 39
2006-07-03 09:00:34 51°13.992 2°55.51 3.4 3 25.6 101610 39
2006-07-03 09:00:40 51°14.003 2°55.502 3.3 356 25.6 101610 39
2006-07-03 09:00:45 51°14.013 2°55.496 3.2 351 25.5 101610 39
2006-07-03 09:00:50 51°14.022 2°55.489 2.7 358 25.5 101610 39
2006-07-03 09:00:54 51°14.03 2°55.483 2.8 2 25.4 101610 39
2006-07-03 09:01:00 51°14.041 2°55.475 2.8 1 25.4 101610 39
2006-07-03 09:01:04 51°14.049 2°55.469 2.9 1 25.4 101610 40
2006-07-03 09:01:10 51°14.061 2°55.461 2.2 2 25.4 101610 40
2006-07-03 09:01:14 51°14.069 2°55.456 2 357 25.4 101610 40
2006-07-03 09:01:20 51°14.081 2°55.447 2.3 353 25.4 101610 40
2006-07-03 09:01:25 51°14.091 2°55.44 2.1 351 25.3 101610 39
2006-07-03 09:01:30 51°14.102 2°55.432 2.1 355 25.3 101610 39
2006-07-03 09:01:35 51°14.112 2°55.425 2 353 25.3 101610 39
2006-07-03 09:01:40 51°14.123 2°55.417 2.8 358 25.3 101610 39
2006-07-03 09:01:45 51°14.134 2°55.408 2.5 1 25.2 101610 39
2006-07-03 09:01:50 51°14.145 2°55.4 2.9 344 25.2 101610 39
2006-07-03 09:01:56 51°14.159 2°55.389 4 340 25.2 101610 39
2006-07-03 09:02:00 51°14.168 2°55.381 5.6 2 25.2 101610 39
2006-07-03 09:02:05 51°14.179 2°55.371 5.7 356 25.2 101610 40
2006-07-03 09:02:10 51°14.191 2°55.36 6.6 354 25.2 101610 40
2006-07-03 09:02:15 51°14.202 2°55.349 6.9 349 25.1 101610 40
2006-07-03 09:02:20 51°14.213 2°55.337 6.2 1 25.1 101610 40
2006-07-03 09:02:25 51°14.224 2°55.324 5.6 359 25.2 101610 41
2006-07-03 09:02:30 51°14.234 2°55.31 5.1 358 25.2 101610 41
2006-07-03 09:02:34 51°14.243 2°55.299 5 355 25.1 101610 41
2006-07-03 09:02:40 51°14.255 2°55.282 5.1 360 25.1 101610 41
2006-07-03 09:02:45 51°14.265 2°55.267 5.2 2 25.1 101600 39
2006-07-03 09:02:50 51°14.274 2°55.251 5.2 352 25.1 101600 39
2006-07-03 09:02:55 51°14.283 2°55.235 3.7 346 25.1 101610 40
2006-07-03 09:03:00 51°14.292 2°55.218 4.1 357 25.1 101610 40
2006-07-03 09:03:05 51°14.301 2°55.201 3.9 1 25.1 101600 40
2006-07-03 09:03:10 51°14.309 2°55.183 3.5 1 25.1 101600 40
2006-07-03 09:03:15 51°14.317 2°55.164 3.7 353 25.1 101610 41
2006-07-03 09:03:20 51°14.325 2°55.145 3.4 1 25.1 101610 41
2006-07-03 09:03:25 51°14.333 2°55.126 3.1 359 25 101610 41
2006-07-03 09:03:30 51°14.341 2°55.106 2.1 357 25 101610 41
2006-07-03 09:03:35 51°14.349 2°55.087 2.7 358 25 101610 42
2006-07-03 09:03:40 51°14.358 2°55.067 3.2 346 25 101610 42
2006-07-03 09:03:45 51°14.367 2°55.047 3.9 349 25 101610 40
2006-07-03 09:03:50 51°14.375 2°55.027 3.6 356 25 101610 40
2006-07-03 09:03:55 51°14.384 2°55.007 2.6 350 25 101610 41
2006-07-03 09:04:00 51°14.393 2°54.985 3.5 352 25 101610 41
2006-07-03 09:04:05 51°14.402 2°54.963 3.6 353 24.9 101610 42
2006-07-03 09:04:10 51°14.41 2°54.941 3.5 350 24.9 101610 42
2006-07-03 09:04:15 51°14.42 2°54.918 3.4 350 24.9 101610 40
2006-07-03 09:04:20 51°14.429 2°54.895 3.7 348 24.9 101610 40
2006-07-03 09:04:25 51°14.439 2°54.872 3.9 347 24.9 101610 40
2006-07-03 09:04:30 51°14.45 2°54.85 4.1 349 24.9 101610 40
2006-07-03 09:04:34 51°14.459 2°54.833 4.1 350 24.9 101610 40
2006-07-03 09:04:40 51°14.473 2°54.807 5.2 347 24.9 101610 40
2006-07-03 09:04:45 51°14.485 2°54.786 5.2 348 24.9 101610 40
2006-07-03 09:04:50 51°14.497 2°54.766 4.8 348 24.9 101610 40
2006-07-03 09:04:55 51°14.51 2°54.748 5.2 351 24.8 101610 41
2006-07-03 09:05:00 51°14.524 2°54.73 5.5 350 24.8 101610 41
2006-07-03 09:05:05 51°14.538 2°54.714 5.8 350 24.8 101610 41
2006-07-03 09:05:09 51°14.549 2°54.7 5.9 350 24.8 101610 41
2006-07-03 09:05:14 51°14.564 2°54.686 6.1 350 24.8 101610 40
2006-07-03 09:05:19 51°14.579 2°54.672 6.8 346 24.8 101610 40
2006-07-03 09:05:25 51°14.598 2°54.658 6.8 346 24.8 101610 41
2006-07-03 09:05:30 51°14.614 2°54.647 7.2 344 24.8 101610 41
2006-07-03 09:05:34 51°14.627 2°54.64 7.4 344 24.7 101610 42
2006-07-03 09:05:40 51°14.646 2°54.63 8.2 344 24.7 101610 42
2006-07-03 09:05:45 51°14.663 2°54.624 8.3 344 24.7 101600 41
2006-07-03 09:05:50 51°14.68 2°54.619 8.4 345 24.7 101600 41
2006-07-03 09:05:55 51°14.697 2°54.614 8.5 344 24.7 101600 44
2006-07-03 09:06:00 51°14.714 2°54.609 8.4 345 24.7 101600 44
2006-07-03 09:06:05 51°14.73 2°54.604 7.9 344 24.6 101610 46
2006-07-03 09:06:10 51°14.748 2°54.6 8 345 24.6 101610 46
2006-07-03 09:06:15 51°14.764 2°54.596 8 345 24.6 101600 45
2006-07-03 09:06:20 51°14.782 2°54.593 7.9 345 24.6 101600 45
2006-07-03 09:06:25 51°14.799 2°54.591 8.3 343 24.5 101600 43
2006-07-03 09:06:30 51°14.816 2°54.588 8.4 341 24.5 101600 43
2006-07-03 09:06:34 51°14.829 2°54.586 8.2 341 24.4 101600 43
2006-07-03 09:06:40 51°14.85 2°54.583 8.8 339 24.4 101600 43
2006-07-03 09:06:45 51°14.867 2°54.58 8.8 339 24.4 101600 47
2006-07-03 09:06:50 51°14.884 2°54.578 9.2 340 24.4 101600 47
2006-07-03 09:06:55 51°14.901 2°54.575 9 339 24.4 101600 47
2006-07-03 09:07:00 51°14.918 2°54.572 8.8 340 24.4 101600 47
2006-07-03 09:07:04 51°14.931 2°54.57 9.3 341 24.4 101600 49
2006-07-03 09:07:09 51°14.948 2°54.567 9.7 344 24.4 101600 49
2006-07-03 09:07:15 51°14.969 2°54.564 9.2 343 24.3 101600 50
2006-07-03 09:07:20 51°14.986 2°54.561 9.4 343 24.3 101600 50
2006-07-03 09:07:25 51°15.003 2°54.557 9.3 344 24.3 101600 52
2006-07-03 09:07:30 51°15.02 2°54.554 9.8 344 24.3 101600 52
2006-07-03 09:07:35 51°15.037 2°54.551 9.4 344 24.2 101600 51
2006-07-03 09:07:40 51°15.054 2°54.548 9.3 343 24.2 101600 51
2006-07-03 09:07:45 51°15.07 2°54.545 9.5 343 24.1 101600 51
2006-07-03 09:07:50 51°15.087 2°54.542 9.3 344 24.1 101600 51
2006-07-03 09:07:55 51°15.104 2°54.539 9.3 342 24 101600 51
2006-07-03 09:08:00 51°15.121 2°54.537 9.1 344 24 101600 51
2006-07-03 09:08:05 51°15.138 2°54.534 9.2 344 24 101600 52
2006-07-03 09:08:10 51°15.155 2°54.531 9 342 24 101600 52
2006-07-03 09:08:15 51°15.172 2°54.528 8.9 343 23.9 101600 53
2006-07-03 09:08:20 51°15.189 2°54.525 9.4 342 23.9 101600 53
2006-07-03 09:08:25 51°15.206 2°54.523 9.1 342 23.8 101600 53
2006-07-03 09:08:30 51°15.224 2°54.52 9.2 341 23.8 101600 53
2006-07-03 09:08:34 51°15.237 2°54.518 9.4 342 23.8 101600 54
2006-07-03 09:08:39 51°15.254 2°54.515 9.4 343 23.8 101600 54
2006-07-03 09:08:45 51°15.275 2°54.511 9.3 342 23.7 101600 54
2006-07-03 09:08:50 51°15.292 2°54.507 9 343 23.7 101600 54
2006-07-03 09:08:55 51°15.309 2°54.504 9.1 343 23.7 101600 54
2006-07-03 09:09:00 51°15.326 2°54.501 8.7 343 23.7 101600 54
2006-07-03 09:09:05 51°15.343 2°54.497 8.7 343 23.6 101600 54
2006-07-03 09:09:10 51°15.36 2°54.493 8.8 343 23.6 101600 54
2006-07-03 09:09:15 51°15.377 2°54.49 9.2 342 23.6 101610 54
2006-07-03 09:09:20 51°15.394 2°54.486 8.8 342 23.6 101610 54
2006-07-03 09:09:25 51°15.411 2°54.482 9.2 342 23.5 101600 54
2006-07-03 09:09:30 51°15.428 2°54.477 4.4 343 23.5 101600 54
2006-07-03 09:09:35 51°15.444 2°54.473 8.8 343 23.5 101600 55
2006-07-03 09:09:40 51°15.461 2°54.47 8.7 343 23.5 101600 55
2006-07-03 09:09:45 51°15.478 2°54.466 9 343 23.4 101600 55
2006-07-03 09:09:50 51°15.495 2°54.462 8.6 344 23.4 101600 55
2006-07-03 09:09:55 51°15.512 2°54.459 8.8 343 23.4 101610 55
2006-07-03 09:10:00 51°15.529 2°54.456 8.7 343 23.4 101610 55
2006-07-03 09:10:05 51°15.546 2°54.452 4.4 344 23.4 101600 56
2006-07-03 09:10:10 51°15.563 2°54.449 9.4 345 23.4 101600 56
2006-07-03 09:10:15 51°15.58 2°54.445 9.3 345 23.3 101600 56
2006-07-03 09:10:20 51°15.597 2°54.442 9 345 23.3 101600 56
2006-07-03 09:10:25 51°15.614 2°54.438 8.9 346 23.3 101610 56
2006-07-03 09:10:30 51°15.631 2°54.434 9.2 345 23.3 101610 56
2006-07-03 09:10:34 51°15.644 2°54.431 8.6 345 23.2 101600 56
2006-07-03 09:10:39 51°15.661 2°54.427 9 345 23.2 101600 56
2006-07-03 09:10:45 51°15.682 2°54.423 8.6 344 23.2 101610 56
2006-07-03 09:10:50 51°15.699 2°54.419 9 344 23.2 101610 56
2006-07-03 09:10:54 51°15.712 2°54.416 9.5 343 23.1 101600 56
2006-07-03 09:11:00 51°15.733 2°54.411 9.2 343 23.1 101600 56
2006-07-03 09:11:05 51°15.75 2°54.407 9.1 342 23.1 101610 56
2006-07-03 09:11:10 51°15.767 2°54.403 9.3 343 23.1 101610 56
2006-07-03 09:11:15 51°15.784 2°54.399 9.3 342 23.1 101610 57
2006-07-03 09:11:20 51°15.801 2°54.396 9.1 342 23.1 101610 57
2006-07-03 09:11:25 51°15.818 2°54.392 8.9 342 23.1 101610 57
2006-07-03 09:11:30 51°15.835 2°54.387 9.1 341 23.1 101610 57
2006-07-03 09:11:34 51°15.849 2°54.384 8.8 339 23.1 101610 58
2006-07-03 09:11:40 51°15.869 2°54.379 9.4 341 23.1 101610 58
2006-07-03 09:11:45 51°15.886 2°54.375 9.4 341 23 101600 59
2006-07-03 09:11:50 51°15.903 2°54.371 8.9 343 23 101600 59
2006-07-03 09:11:55 51°15.92 2°54.367 9.3 343 23 101610 61
2006-07-03 09:12:00 51°15.937 2°54.363 8.8 344 23 101610 61
2006-07-03 09:12:05 51°15.952 2°54.359 8.8 345 23 101610 62
2006-07-03 09:12:10 51°15.966 2°54.355 8 346 23 101610 62
2006-07-03 09:12:14 51°15.976 2°54.353 8 347 22.9 101610 61
2006-07-03 09:12:20 51°15.99 2°54.351 7.4 348 22.9 101610 61
2006-07-03 09:12:25 51°16.001 2°54.348 7.2 348 22.9 101600 60
2006-07-03 09:12:30 51°16.012 2°54.346 7.5 346 22.9 101600 60
2006-07-03 09:12:34 51°16.02 2°54.345 6.9 346 22.8 101610 60
2006-07-03 09:12:40 51°16.03 2°54.346 6.8 346 22.8 101610 60
2006-07-03 09:12:45 51°16.038 2°54.347 6.9 345 22.7 101610 60
2006-07-03 09:12:50 51°16.046 2°54.348 6.8 345 22.7 101610 60
2006-07-03 09:12:55 51°16.053 2°54.35 7 346 22.7 101610 61
2006-07-03 09:13:00 51°16.06 2°54.352 6.7 344 22.7 101610 61
2006-07-03 09:13:05 51°16.066 2°54.354 6.5 345 22.6 101610 62
2006-07-03 09:13:10 51°16.072 2°54.357 6.4 343 22.6 101610 62
2006-07-03 09:13:14 51°16.076 2°54.359 6.2 344 22.6 101610 61
2006-07-03 09:13:20 51°16.082 2°54.363 6.1 343 22.6 101610 61
2006-07-03 09:13:25 51°16.087 2°54.365 5.9 344 22.6 101610 61
2006-07-03 09:13:30 51°16.091 2°54.368 5.9 344 22.6 101610 61
2006-07-03 09:13:34 51°16.095 2°54.37 5.9 343 22.5 101610 62
2006-07-03 09:13:40 51°16.1 2°54.374 5.7 342 22.5 101610 62
2006-07-03 09:13:45 51°16.103 2°54.377 5.7 342 22.5 101610 61
2006-07-03 09:13:50 51°16.107 2°54.38 5.7 341 22.5 101610 61
2006-07-03 09:13:55 51°16.11 2°54.382 5.3 341 22.5 101610 60
2006-07-03 09:14:00 51°16.114 2°54.385 5.3 339 22.5 101610 60
2006-07-03 09:14:05 51°16.117 2°54.388 5.2 340 22.5 101610 59
2006-07-03 09:14:10 51°16.12 2°54.39 5.2 339 22.5 101610 59
2006-07-03 09:14:15 51°16.123 2°54.393 5.4 340 22.5 101610 59
2006-07-03 09:14:20 51°16.125 2°54.396 5.2 338 22.5 101610 59
2006-07-03 09:14:24 51°16.127 2°54.398 5.1 338 22.5 101620 59
2006-07-03 09:14:30 51°16.13 2°54.401 5 337 22.5 101620 59
2006-07-03 09:14:34 51°16.132 2°54.402 5 337 22.6 101620 60
2006-07-03 09:14:40 51°16.135 2°54.405 5.2 336 22.6 101620 60
2006-07-03 09:14:45 51°16.137 2°54.408 5.2 336 22.6 101610 59
2006-07-03 09:14:50 51°16.139 2°54.41 4.9 336 22.6 101610 59
2006-07-03 09:14:54 51°16.141 2°54.412 4.8 335 22.6 101620 59
2006-07-03 09:15:00 51°16.143 2°54.415 5 335 22.6 101620 59
2006-07-03 09:15:03 51°16.144 2°54.416 4.9 335 22.7 101620 59
2006-07-03 09:15:10 51°16.146 2°54.419 5.1 334 22.7 101620 59
2006-07-03 09:15:14 51°16.148 2°54.421 4.9 334 22.7 101610 59
2006-07-03 09:15:19 51°16.15 2°54.423 5 335 22.7 101610 59
2006-07-03 09:15:25 51°16.152 2°54.425 4.8 335 22.7 101620 59
2006-07-03 09:15:30 51°16.153 2°54.427 4.7 335 22.7 101620 59
2006-07-03 09:15:35 51°16.155 2°54.429 4.6 335 22.7 101620 60
2006-07-03 09:15:40 51°16.156 2°54.43 4.6 335 22.7 101620 60
2006-07-03 09:15:45 51°16.158 2°54.432 4.6 335 22.7 101620 60
2006-07-03 09:15:50 51°16.159 2°54.434 4.4 334 22.7 101620 60
2006-07-03 09:15:55 51°16.16 2°54.435 4.6 334 22.7 101620 60
2006-07-03 09:16:00 51°16.161 2°54.437 4.4 334 22.7 101620 60
2006-07-03 09:16:05 51°16.162 2°54.438 4.4 335 22.7 101620 60
2006-07-03 09:16:10 51°16.164 2°54.439 4.3 334 22.7 101620 60
2006-07-03 09:16:15 51°16.165 2°54.441 4.1 335 22.7 101620 60
2006-07-03 09:16:20 51°16.166 2°54.442 4.6 336 22.7 101620 60
2006-07-03 09:16:25 51°16.167 2°54.443 4.5 335 22.6 101620 61
2006-07-03 09:16:30 51°16.168 2°54.444 4.2 336 22.6 101620 61
2006-07-03 09:16:35 51°16.169 2°54.446 4.4 335 22.6 101620 60
2006-07-03 09:16:40 51°16.17 2°54.447 4.6 335 22.6 101620 60
2006-07-03 09:16:45 51°16.171 2°54.448 4.6 335 22.6 101620 60
2006-07-03 09:16:50 51°16.173 2°54.449 4.5 333 22.6 101620 60
2006-07-03 09:16:55 51°16.173 2°54.45 4.4 335 22.6 101620 61
2006-07-03 09:17:00 51°16.174 2°54.451 4.3 334 22.6 101620 61
2006-07-03 09:17:05 51°16.175 2°54.452 4.3 334 22.6 101620 61
2006-07-03 09:17:10 51°16.176 2°54.453 4.3 333 22.6 101620 61
2006-07-03 09:17:15 51°16.177 2°54.454 4.3 333 22.6 101620 61
2006-07-03 09:17:20 51°16.178 2°54.455 4.2 332 22.6 101620 61
2006-07-03 09:17:25 51°16.179 2°54.455 4.1 333 22.6 101620 61
2006-07-03 09:17:30 51°16.179 2°54.456 4.3 333 22.6 101620 61
2006-07-03 09:17:34 51°16.18 2°54.457 4 334 22.6 101620 62
2006-07-03 09:17:40 51°16.181 2°54.458 4.2 331 22.6 101620 62
2006-07-03 09:17:45 51°16.182 2°54.458 3.9 331 22.6 101620 62
2006-07-03 09:17:50 51°16.182 2°54.459 3.7 328 22.6 101620 62
2006-07-03 09:17:55 51°16.183 2°54.459 3.7 330 22.5 101620 62
2006-07-03 09:18:00 51°16.183 2°54.46 3.5 328 22.5 101620 62
2006-07-03 09:18:05 51°16.184 2°54.46 3.7 330 22.5 101620 62
2006-07-03 09:18:10 51°16.185 2°54.461 3.4 328 22.5 101620 62
2006-07-03 09:18:15 51°16.185 2°54.461 3.6 329 22.5 101620 62
2006-07-03 09:18:20 51°16.186 2°54.462 3.7 327 22.5 101620 62
2006-07-03 09:18:25 51°16.186 2°54.462 3.9 328 22.5 101620 62
2006-07-03 09:18:30 51°16.187 2°54.462 3.8 329 22.5 101620 62
2006-07-03 09:18:34 51°16.187 2°54.463 3.9 328 22.5 101620 63
2006-07-03 09:18:40 51°16.187 2°54.463 4 328 22.5 101620 63
2006-07-03 09:18:44 51°16.188 2°54.463 3.8 328 22.5 101620 63
2006-07-03 09:18:50 51°16.188 2°54.464 3.9 329 22.5 101620 63
2006-07-03 09:18:54 51°16.189 2°54.464 3.8 328 22.5 101620 63
2006-07-03 09:18:59 51°16.189 2°54.464 3.8 328 22.5 101620 63
2006-07-03 09:19:06 51°16.189 2°54.465 4 327 22.5 101620 63
2006-07-03 09:19:10 51°16.19 2°54.465 3.9 327 22.5 101620 63
2006-07-03 09:19:14 51°16.19 2°54.465 4 328 22.5 101610 64
2006-07-03 09:19:20 51°16.19 2°54.465 4 325 22.5 101610 64
2006-07-03 09:19:25 51°16.191 2°54.465 3.7 327 22.5 101620 64
2006-07-03 09:19:30 51°16.191 2°54.465 3.9 328 22.5 101620 64
2006-07-03 09:19:35 51°16.191 2°54.465 4.1 327 22.5 101610 64
2006-07-03 09:19:40 51°16.191 2°54.465 4 327 22.5 101610 64
2006-07-03 09:19:43 51°16.191 2°54.466 4.1 326 22.5 101620 64
2006-07-03 09:19:50 51°16.192 2°54.465 3.9 325 22.5 101620 64
2006-07-03 09:19:54 51°16.192 2°54.465 3.8 326 22.5 101620 64
2006-07-03 09:20:00 51°16.192 2°54.465 3.9 326 22.5 101620 64
2006-07-03 09:20:05 51°16.192 2°54.465 4.1 325 22.5 101620 64
2006-07-03 09:20:10 51°16.192 2°54.465 4.1 327 22.5 101620 64
2006-07-03 09:20:14 51°16.192 2°54.465 4.2 326 22.5 101620 64
2006-07-03 09:20:20 51°16.192 2°54.465 4.2 325 22.5 101620 64
2006-07-03 09:20:25 51°16.192 2°54.465 4.3 327 22.5 101610 64
2006-07-03 09:20:30 51°16.192 2°54.465 4.2 327 22.5 101610 64
2006-07-03 09:20:35 51°16.192 2°54.465 4.2 328 22.4 101620 63
2006-07-03 09:20:40 51°16.193 2°54.465 4.2 326 22.4 101620 63
2006-07-03 09:20:45 51°16.193 2°54.465 4.2 326 22.4 101620 63
2006-07-03 09:20:50 51°16.193 2°54.464 4.2 326 22.4 101620 63
2006-07-03 09:20:55 51°16.193 2°54.464 4.2 324 22.5 101610 63
2006-07-03 09:21:00 51°16.193 2°54.464 4.1 322 22.5 101610 63
2006-07-03 09:21:05 51°16.193 2°54.464 4.2 323 22.5 101620 63
2006-07-03 09:21:10 51°16.192 2°54.463 4.2 323 22.5 101620 63
2006-07-03 09:21:15 51°16.192 2°54.463 4.2 323 22.5 101620 62
2006-07-03 09:21:20 51°16.192 2°54.463 4.2 323 22.5 101620 62
2006-07-03 09:21:24 51°16.192 2°54.462 4.1 323 22.5 101620 62
2006-07-03 09:21:30 51°16.192 2°54.462 4.2 322 22.5 101620 62
2006-07-03 09:21:34 51°16.192 2°54.462 4.2 322 22.5 101620 62
2006-07-03 09:21:40 51°16.192 2°54.461 4.2 322 22.5 101620 62
2006-07-03 09:21:45 51°16.192 2°54.461 4 322 22.5 101620 62
2006-07-03 09:21:50 51°16.192 2°54.46 4 320 22.5 101620 62
2006-07-03 09:21:55 51°16.192 2°54.46 4.1 321 22.5 101620 61
2006-07-03 09:22:00 51°16.191 2°54.46 4.1 321 22.5 101620 61
2006-07-03 09:22:05 51°16.191 2°54.46 3.9 320 22.6 101610 61
2006-07-03 09:22:10 51°16.191 2°54.46 4 320 22.6 101610 61
2006-07-03 09:22:15 51°16.191 2°54.461 4.2 320 22.6 101620 60
2006-07-03 09:22:20 51°16.191 2°54.462 4.5 322 22.6 101620 60
2006-07-03 09:22:25 51°16.192 2°54.463 4.4 323 22.6 101620 59
2006-07-03 09:22:30 51°16.192 2°54.465 4.5 325 22.6 101620 59
2006-07-03 09:22:34 51°16.192 2°54.466 4.4 325 22.6 101620 59
2006-07-03 09:22:41 51°16.193 2°54.469 4.6 327 22.6 101620 59
2006-07-03 09:22:45 51°16.194 2°54.471 4.7 328 22.6 101620 59
2006-07-03 09:22:50 51°16.195 2°54.473 4.8 330 22.6 101620 59
2006-07-03 09:22:54 51°16.196 2°54.474 4.8 331 22.7 101610 59
2006-07-03 09:23:00 51°16.198 2°54.477 5 334 22.7 101610 59
2006-07-03 09:23:05 51°16.2 2°54.479 4.9 335 22.7 101620 59
2006-07-03 09:23:10 51°16.202 2°54.481 4.8 338 22.7 101620 59
2006-07-03 09:23:15 51°16.204 2°54.483 4.9 339 22.7 101610 59
2006-07-03 09:23:20 51°16.207 2°54.485 5.1 342 22.7 101610 59
2006-07-03 09:23:25 51°16.209 2°54.486 5.2 343 22.7 101610 58
2006-07-03 09:23:30 51°16.212 2°54.486 5.1 345 22.7 101610 58
2006-07-03 09:23:35 51°16.216 2°54.487 5 346 22.8 101610 58
2006-07-03 09:23:40 51°16.219 2°54.487 5.3 350 22.8 101610 58
2006-07-03 09:23:45 51°16.223 2°54.486 4.9 350 22.7 101620 58
2006-07-03 09:23:50 51°16.226 2°54.485 5.1 354 22.7 101620 58
2006-07-03 09:23:55 51°16.23 2°54.484 5 354 22.7 101610 58
2006-07-03 09:24:00 51°16.234 2°54.482 4.8 357 22.7 101610 58
2006-07-03 09:24:05 51°16.238 2°54.479 4.9 359 22.7 101610 58
2006-07-03 09:24:10 51°16.241 2°54.476 4.3 3 22.7 101610 58
2006-07-03 09:24:15 51°16.245 2°54.472 4.3 3 22.6 101610 59
2006-07-03 09:24:20 51°16.249 2°54.468 4.1 4 22.6 101610 59
2006-07-03 09:24:25 51°16.253 2°54.464 4.2 4 22.6 101610 60
2006-07-03 09:24:30 51°16.257 2°54.459 4.6 4 22.6 101610 60
2006-07-03 09:24:34 51°16.26 2°54.455 4.4 4 22.6 101620 60
2006-07-03 09:24:40 51°16.265 2°54.449 4.6 4 22.6 101620 60
2006-07-03 09:24:45 51°16.269 2°54.443 4.6 3 22.5 101620 61
2006-07-03 09:24:50 51°16.273 2°54.438 4.3 4 22.5 101620 61
2006-07-03 09:24:55 51°16.278 2°54.432 4.6 3 22.4 101620 61
2006-07-03 09:25:00 51°16.282 2°54.426 4.2 3 22.4 101620 61
2006-07-03 09:25:05 51°16.287 2°54.42 4.3 4 22.4 101620 61
2006-07-03 09:25:10 51°16.291 2°54.414 4.5 3 22.4 101620 61
2006-07-03 09:25:15 51°16.296 2°54.408 4.5 3 22.3 101620 62
2006-07-03 09:25:20 51°16.301 2°54.402 4.6 2 22.3 101620 62
2006-07-03 09:25:25 51°16.306 2°54.396 4.6 2 22.3 101610 62
2006-07-03 09:25:30 51°16.31 2°54.39 4.4 3 22.3 101610 62
2006-07-03 09:25:34 51°16.314 2°54.384 4.4 2 22.2 101620 61
2006-07-03 09:25:40 51°16.32 2°54.376 4.3 4 22.2 101620 61
2006-07-03 09:25:44 51°16.324 2°54.371 4.4 4 22.2 101620 62
2006-07-03 09:25:50 51°16.33 2°54.362 4.1 4 22.2 101620 62
2006-07-03 09:25:55 51°16.334 2°54.355 4 5 22.2 101620 62
2006-07-03 09:26:00 51°16.339 2°54.347 3.9 4 22.2 101620 62
2006-07-03 09:26:05 51°16.344 2°54.34 4.3 5 22.1 101620 62
2006-07-03 09:26:10 51°16.349 2°54.332 3.8 5 22.1 101620 62
2006-07-03 09:26:15 51°16.353 2°54.324 3.9 5 22.1 101620 62
2006-07-03 09:26:20 51°16.358 2°54.316 4.3 5 22.1 101620 62
2006-07-03 09:26:25 51°16.362 2°54.307 4.2 5 22.1 101620 62
2006-07-03 09:26:30 51°16.367 2°54.298 3.9 6 22.1 101620 62
2006-07-03 09:26:35 51°16.371 2°54.29 4 5 22.1 101620 62
2006-07-03 09:26:40 51°16.376 2°54.281 3.9 6 22.1 101620 62
2006-07-03 09:26:45 51°16.38 2°54.272 3.7 6 22 101620 62
2006-07-03 09:26:50 51°16.384 2°54.262 3.9 4 22 101620 62
2006-07-03 09:26:54 51°16.387 2°54.255 4 4 22 101620 63
2006-07-03 09:27:00 51°16.392 2°54.243 3.9 4 22 101620 63
2006-07-03 09:27:04 51°16.396 2°54.234 3.8 3 22 101620 63
2006-07-03 09:27:10 51°16.401 2°54.221 3.7 3 22 101620 63
2006-07-03 09:27:15 51°16.405 2°54.21 4.1 3 22 101620 63
2006-07-03 09:27:20 51°16.409 2°54.198 4.2 3 22 101620 63
2006-07-03 09:27:24 51°16.412 2°54.189 4.2 2 22 101620 64
2006-07-03 09:27:30 51°16.417 2°54.174 4.2 2 22 101620 64
2006-07-03 09:27:35 51°16.421 2°54.161 3.7 3 22 101620 64
2006-07-03 09:27:40 51°16.425 2°54.148 4 1 22 101620 64
2006-07-03 09:27:45 51°16.428 2°54.135 3.8 2 21.9 101620 64
2006-07-03 09:27:50 51°16.432 2°54.121 4.2 4 21.9 101620 64
2006-07-03 09:27:55 51°16.435 2°54.108 3.9 6 21.9 101620 65
2006-07-03 09:28:00 51°16.439 2°54.094 3.8 2 21.9 101620 65
2006-07-03 09:28:05 51°16.443 2°54.08 3.9 1 21.9 101620 65
2006-07-03 09:28:10 51°16.446 2°54.067 3.8 5 21.9 101620 65
2006-07-03 09:28:14 51°16.449 2°54.057 3.8 7 21.9 101620 65
2006-07-03 09:28:20 51°16.453 2°54.042 3.2 4 21.9 101620 65
2006-07-03 09:28:25 51°16.457 2°54.029 3.6 3 21.8 101620 65
2006-07-03 09:28:30 51°16.46 2°54.017 3.5 7 21.8 101620 65
2006-07-03 09:28:35 51°16.463 2°54.004 3.5 5 21.8 101620 66
2006-07-03 09:28:40 51°16.467 2°53.992 3.2 4 21.8 101620 66
2006-07-03 09:28:45 51°16.469 2°53.981 3.5 5 21.8 101620 66
2006-07-03 09:28:50 51°16.472 2°53.97 3.6 8 21.8 101620 66
2006-07-03 09:28:54 51°16.474 2°53.961 3.8 11 21.8 101620 65
2006-07-03 09:29:00 51°16.476 2°53.949 3.3 10 21.8 101620 65
2006-07-03 09:29:05 51°16.479 2°53.939 3.4 13 21.8 101620 66
2006-07-03 09:29:10 51°16.48 2°53.929 2.8 14 21.8 101620 66
2006-07-03 09:29:15 51°16.482 2°53.921 3.1 14 21.7 101620 65
2006-07-03 09:29:20 51°16.483 2°53.913 3 22 21.7 101620 65
2006-07-03 09:29:25 51°16.484 2°53.907 2.9 22 21.7 101620 66
2006-07-03 09:29:30 51°16.484 2°53.903 2.5 27 21.7 101620 66
2006-07-03 09:29:35 51°16.484 2°53.899 2.7 27 21.7 101620 67
2006-07-03 09:29:40 51°16.484 2°53.897 3.3 35 21.7 101620 67
2006-07-03 09:29:45 51°16.483 2°53.896 3.2 33 21.7 101620 67
2006-07-03 09:29:50 51°16.483 2°53.895 2.9 35 21.7 101620 67
2006-07-03 09:29:55 51°16.483 2°53.893 3.3 35 21.7 101620 67
2006-07-03 09:30:00 51°16.482 2°53.892 3 39 21.7 101620 67
2006-07-03 09:30:05 51°16.482 2°53.89 2.9 36 21.7 101620 67
2006-07-03 09:30:10 51°16.482 2°53.889 3 35 21.7 101620 67
2006-07-03 09:30:14 51°16.481 2°53.887 3 35 21.7 101620 67
2006-07-03 09:30:21 51°16.481 2°53.885 2.9 38 21.7 101620 67
2006-07-03 09:30:24 51°16.481 2°53.884 3.1 36 21.7 101620 67
2006-07-03 09:30:30 51°16.48 2°53.882 2.7 38 21.7 101620 67
2006-07-03 09:30:35 51°16.48 2°53.88 3.1 35 21.7 101620 67
2006-07-03 09:30:40 51°16.479 2°53.879 3.2 35 21.7 101620 67
2006-07-03 09:30:45 51°16.479 2°53.877 2.7 36 21.7 101620 68
2006-07-03 09:30:50 51°16.478 2°53.876 3.1 36 21.7 101620 68
2006-07-03 09:30:55 51°16.478 2°53.874 3.1 36 21.7 101620 67
2006-07-03 09:31:00 51°16.477 2°53.872 3 36 21.7 101620 67
2006-07-03 09:31:05 51°16.477 2°53.871 3.5 37 21.7 101620 67
2006-07-03 09:31:10 51°16.476 2°53.869 3.4 34 21.7 101620 67
2006-07-03 09:31:15 51°16.476 2°53.867 3 37 21.7 101620 67
2006-07-03 09:31:20 51°16.475 2°53.865 3.3 37 21.7 101620 67
2006-07-03 09:31:25 51°16.475 2°53.864 2.9 37 21.7 101620 67
2006-07-03 09:31:30 51°16.474 2°53.862 3.2 37 21.7 101620 67
2006-07-03 09:31:35 51°16.474 2°53.86 3 41 21.7 101620 68
2006-07-03 09:31:40 51°16.474 2°53.858 2.9 39 21.7 101620 68
2006-07-03 09:31:45 51°16.473 2°53.856 3.4 38 21.7 101620 68
2006-07-03 09:31:50 51°16.473 2°53.855 3.1 38 21.7 101620 68
2006-07-03 09:31:54 51°16.472 2°53.853 3.6 39 21.7 101620 68
2006-07-03 09:32:00 51°16.472 2°53.851 3.6 39 21.7 101620 68
2006-07-03 09:32:05 51°16.471 2°53.849 3.6 40 21.7 101620 68
2006-07-03 09:32:10 51°16.471 2°53.847 3.3 38 21.7 101620 68
2006-07-03 09:32:15 51°16.47 2°53.845 3.1 40 21.7 101620 68
2006-07-03 09:32:20 51°16.47 2°53.844 3.7 42 21.7 101620 68
2006-07-03 09:32:25 51°16.469 2°53.841 4 41 21.7 101620 67
2006-07-03 09:32:30 51°16.468 2°53.84 3.4 40 21.7 101620 67
2006-07-03 09:32:35 51°16.468 2°53.838 3.4 39 21.7 101620 68
2006-07-03 09:32:40 51°16.467 2°53.836 3.8 39 21.7 101620 68
2006-07-03 09:32:45 51°16.467 2°53.834 3.6 40 21.7 101620 68
2006-07-03 09:32:50 51°16.466 2°53.832 3.6 41 21.7 101620 68
2006-07-03 09:32:54 51°16.466 2°53.831 2.9 39 21.7 101620 68
2006-07-03 09:33:00 51°16.465 2°53.828 3.8 43 21.7 101620 68
2006-07-03 09:33:05 51°16.464 2°53.826 3.4 42 21.7 101620 68
2006-07-03 09:33:10 51°16.464 2°53.824 3.3 41 21.7 101620 68
2006-07-03 09:33:15 51°16.463 2°53.822 3.2 40 21.7 101620 68
2006-07-03 09:33:20 51°16.463 2°53.82 3.5 40 21.7 101620 68
2006-07-03 09:33:26 51°16.462 2°53.818 4 41 21.7 101620 68
2006-07-03 09:33:30 51°16.461 2°53.816 3.8 42 21.7 101620 68
2006-07-03 09:33:35 51°16.461 2°53.814 3.6 41 21.6 101620 68
2006-07-03 09:33:40 51°16.46 2°53.812 4 41 21.6 101620 68
2006-07-03 09:33:44 51°16.46 2°53.811 3.5 42 21.7 101610 68
2006-07-03 09:33:50 51°16.459 2°53.808 3.3 40 21.7 101610 68
2006-07-03 09:33:55 51°16.458 2°53.806 3.3 42 21.6 101610 68
2006-07-03 09:34:00 51°16.458 2°53.804 3.3 41 21.6 101610 68
2006-07-03 09:34:05 51°16.457 2°53.802 3.7 41 21.6 101610 68
2006-07-03 09:34:10 51°16.457 2°53.8 4.1 43 21.6 101610 68
2006-07-03 09:34:15 51°16.456 2°53.798 3.5 40 21.6 101610 69
2006-07-03 09:34:20 51°16.455 2°53.796 3.5 42 21.6 101610 69
2006-07-03 09:34:25 51°16.455 2°53.794 4.3 42 21.6 101610 68
2006-07-03 09:34:30 51°16.454 2°53.792 3.9 40 21.6 101610 68
2006-07-03 09:34:35 51°16.454 2°53.79 4 41 21.6 101610 68
2006-07-03 09:34:40 51°16.453 2°53.787 4.1 40 21.6 101610 68
2006-07-03 09:34:45 51°16.452 2°53.785 3.7 40 21.6 101610 68
2006-07-03 09:34:50 51°16.452 2°53.783 4 39 21.6 101610 68
2006-07-03 09:34:55 51°16.451 2°53.781 4.1 40 21.6 101620 69
2006-07-03 09:35:00 51°16.451 2°53.779 4.1 40 21.6 101620 69
2006-07-03 09:35:05 51°16.45 2°53.777 3.6 38 21.6 101610 69
2006-07-03 09:35:10 51°16.45 2°53.774 4 39 21.6 101610 69
2006-07-03 09:35:14 51°16.449 2°53.773 4.1 38 21.6 101610 69
2006-07-03 09:35:20 51°16.448 2°53.77 3.9 39 21.6 101610 69
2006-07-03 09:35:25 51°16.448 2°53.768 4.4 36 21.6 101610 69
2006-07-03 09:35:30 51°16.447 2°53.765 4 38 21.6 101610 69
2006-07-03 09:35:35 51°16.447 2°53.763 3.9 36 21.5 101610 69
2006-07-03 09:35:40 51°16.446 2°53.761 3.5 36 21.5 101610 69
2006-07-03 09:35:45 51°16.445 2°53.759 4.2 38 21.6 101610 69
2006-07-03 09:35:50 51°16.445 2°53.757 4.3 39 21.6 101610 69
2006-07-03 09:35:55 51°16.444 2°53.754 3.5 37 21.5 101610 69
2006-07-03 09:36:00 51°16.444 2°53.752 4.4 38 21.5 101610 69
2006-07-03 09:36:05 51°16.443 2°53.75 3.9 35 21.6 101610 70
2006-07-03 09:36:10 51°16.443 2°53.748 3.7 39 21.6 101610 70
2006-07-03 09:36:15 51°16.442 2°53.745 4.3 38 21.6 101610 70
2006-07-03 09:36:20 51°16.441 2°53.743 4.3 36 21.6 101610 70
2006-07-03 09:36:25 51°16.441 2°53.741 4.7 37 21.5 101610 70
2006-07-03 09:36:30 51°16.44 2°53.739 4.9 37 21.5 101610 70
2006-07-03 09:36:34 51°16.44 2°53.737 4.6 33 21.5 101610 70
2006-07-03 09:36:39 51°16.439 2°53.735 4.5 36 21.5 101610 70
2006-07-03 09:36:44 51°16.439 2°53.732 4.4 35 21.5 101610 70
2006-07-03 09:36:49 51°16.438 2°53.73 4.3 34 21.5 101610 70
2006-07-03 09:36:55 51°16.437 2°53.727 4.7 32 21.5 101610 70
2006-07-03 09:37:00 51°16.437 2°53.725 4.8 35 21.5 101610 70
2006-07-03 09:37:05 51°16.436 2°53.723 4.9 34 21.5 101610 70
2006-07-03 09:37:10 51°16.435 2°53.721 4.6 34 21.5 101610 70
2006-07-03 09:37:15 51°16.435 2°53.718 5 35 21.5 101610 70
2006-07-03 09:37:20 51°16.434 2°53.716 4.3 33 21.5 101610 70
2006-07-03 09:37:25 51°16.434 2°53.714 5 33 21.5 101610 71
2006-07-03 09:37:30 51°16.433 2°53.712 4.7 33 21.5 101610 71
2006-07-03 09:37:34 51°16.433 2°53.71 4.7 32 21.5 101610 70
2006-07-03 09:37:40 51°16.432 2°53.707 4.3 32 21.5 101610 70
2006-07-03 09:37:45 51°16.432 2°53.705 5 33 21.5 101610 70
2006-07-03 09:37:50 51°16.431 2°53.703 4.2 31 21.5 101610 70
2006-07-03 09:37:55 51°16.431 2°53.7 4.5 31 21.4 101610 70
2006-07-03 09:38:00 51°16.43 2°53.698 4.3 30 21.4 101610 70
2006-07-03 09:38:05 51°16.43 2°53.696 5 31 21.4 101610 70
2006-07-03 09:38:10 51°16.429 2°53.694 4.3 30 21.4 101610 70
2006-07-03 09:38:15 51°16.428 2°53.691 3.7 31 21.4 101610 70
2006-07-03 09:38:20 51°16.428 2°53.689 4.5 29 21.4 101610 70
2006-07-03 09:38:25 51°16.427 2°53.687 4.6 28 21.4 101610 70
2006-07-03 09:38:30 51°16.427 2°53.685 4.2 30 21.4 101610 70
2006-07-03 09:38:35 51°16.426 2°53.682 4.5 29 21.4 101610 70
2006-07-03 09:38:41 51°16.426 2°53.68 4.6 26 21.4 101610 70
2006-07-03 09:38:45 51°16.425 2°53.678 4.4 28 21.4 101610 71
2006-07-03 09:38:50 51°16.425 2°53.676 4.6 29 21.4 101610 71
2006-07-03 09:38:55 51°16.425 2°53.673 4.4 30 21.4 101610 71
2006-07-03 09:39:00 51°16.424 2°53.671 4.1 28 21.4 101610 71
2006-07-03 09:39:05 51°16.423 2°53.669 4.7 26 21.4 101610 71
2006-07-03 09:39:10 51°16.423 2°53.667 4.5 27 21.4 101610 71
2006-07-03 09:39:15 51°16.422 2°53.665 4.3 27 21.4 101610 71
2006-07-03 09:39:20 51°16.422 2°53.663 4.4 27 21.4 101610 71
2006-07-03 09:39:25 51°16.421 2°53.661 4.3 27 21.4 101610 71
2006-07-03 09:39:30 51°16.421 2°53.658 3.8 29 21.4 101610 71
2006-07-03 09:39:35 51°16.42 2°53.656 4 26 21.4 101610 71
2006-07-03 09:39:40 51°16.42 2°53.654 3.9 25 21.4 101610 71
2006-07-03 09:39:45 51°16.419 2°53.652 4 24 21.4 101610 72
2006-07-03 09:39:50 51°16.419 2°53.65 4.2 26 21.4 101610 72
2006-07-03 09:39:55 51°16.418 2°53.648 4.4 26 21.4 101610 72
2006-07-03 09:40:00 51°16.418 2°53.645 4 24 21.4 101610 72
2006-07-03 09:40:05 51°16.417 2°53.643 4.8 25 21.4 101610 72
2006-07-03 09:40:10 51°16.417 2°53.641 4.3 25 21.4 101610 72
2006-07-03 09:40:14 51°16.416 2°53.639 4.6 25 21.3 101610 72
2006-07-03 09:40:20 51°16.416 2°53.637 4.5 26 21.3 101610 72
2006-07-03 09:40:25 51°16.416 2°53.634 4.2 23 21.3 101610 72
2006-07-03 09:40:30 51°16.415 2°53.632 4.3 24 21.3 101610 72
2006-07-03 09:40:34 51°16.415 2°53.631 4.3 24 21.3 101610 72
2006-07-03 09:40:40 51°16.414 2°53.628 3.8 23 21.3 101610 72
2006-07-03 09:40:45 51°16.414 2°53.626 4.1 23 21.3 101610 72
2006-07-03 09:40:50 51°16.413 2°53.624 4.2 25 21.3 101610 72
2006-07-03 09:40:54 51°16.413 2°53.622 4 27 21.3 101610 72
2006-07-03 09:41:00 51°16.412 2°53.619 3.8 25 21.3 101610 72
2006-07-03 09:41:05 51°16.412 2°53.617 4 24 21.3 101610 72
2006-07-03 09:41:10 51°16.411 2°53.615 4.5 23 21.3 101610 72
2006-07-03 09:41:15 51°16.41 2°53.613 4.4 24 21.3 101610 73
2006-07-03 09:41:20 51°16.41 2°53.611 4.5 20 21.3 101610 73
2006-07-03 09:41:24 51°16.41 2°53.609 4.4 23 21.3 101610 73
2006-07-03 09:41:30 51°16.409 2°53.606 4.5 23 21.3 101610 73
2006-07-03 09:41:35 51°16.408 2°53.604 4.3 26 21.3 101610 73
2006-07-03 09:41:40 51°16.408 2°53.602 4 23 21.3 101610 73
2006-07-03 09:41:45 51°16.407 2°53.6 4.2 24 21.3 101600 73
2006-07-03 09:41:50 51°16.407 2°53.598 3.9 24 21.3 101600 73
2006-07-03 09:41:55 51°16.406 2°53.595 4.2 24 21.3 101610 73
2006-07-03 09:42:00 51°16.406 2°53.593 4.4 24 21.3 101610 73
2006-07-03 09:42:05 51°16.405 2°53.591 4.4 21 21.3 101610 73
2006-07-03 09:42:10 51°16.405 2°53.589 4.3 25 21.3 101610 73
2006-07-03 09:42:14 51°16.404 2°53.587 4.6 22 21.3 101600 73
2006-07-03 09:42:20 51°16.404 2°53.585 4 22 21.3 101600 73
2006-07-03 09:42:25 51°16.403 2°53.583 4 21 21.3 101610 73
2006-07-03 09:42:30 51°16.403 2°53.581 4.3 19 21.3 101610 73
2006-07-03 09:42:35 51°16.403 2°53.579 3.9 19 21.2 101600 73
2006-07-03 09:42:40 51°16.402 2°53.577 4 22 21.2 101600 73
2006-07-03 09:42:44 51°16.402 2°53.575 4.2 19 21.2 101610 73
2006-07-03 09:42:50 51°16.401 2°53.573 4.2 24 21.2 101610 73
2006-07-03 09:42:54 51°16.401 2°53.571 3.9 20 21.2 101610 73
2006-07-03 09:42:59 51°16.401 2°53.569 4.6 22 21.2 101610 73
2006-07-03 09:43:05 51°16.4 2°53.566 4.3 20 21.3 101600 73
2006-07-03 09:43:10 51°16.399 2°53.564 4.2 18 21.3 101600 73
2006-07-03 09:43:14 51°16.399 2°53.562 4.4 19 21.3 101610 73
2006-07-03 09:43:20 51°16.398 2°53.559 4.5 20 21.3 101610 73
2006-07-03 09:43:25 51°16.398 2°53.557 4.4 21 21.3 101610 73
2006-07-03 09:43:30 51°16.397 2°53.555 4.9 19 21.3 101610 73
2006-07-03 09:43:35 51°16.397 2°53.553 4.8 19 21.2 101610 73
2006-07-03 09:43:40 51°16.396 2°53.55 4.4 19 21.2 101610 73
2006-07-03 09:43:45 51°16.396 2°53.549 4.6 19 21.2 101610 73
2006-07-03 09:43:50 51°16.395 2°53.547 4.8 18 21.2 101610 73
2006-07-03 09:43:55 51°16.395 2°53.544 4.3 19 21.2 101610 73
2006-07-03 09:44:00 51°16.394 2°53.542 5 19 21.2 101610 73
2006-07-03 09:44:05 51°16.394 2°53.54 4.8 19 21.2 101600 73
2006-07-03 09:44:10 51°16.393 2°53.538 4.4 19 21.2 101600 73
2006-07-03 09:44:14 51°16.393 2°53.537 5.1 18 21.2 101610 73
2006-07-03 09:44:20 51°16.393 2°53.534 5 20 21.2 101610 73
2006-07-03 09:44:24 51°16.392 2°53.532 4.7 20 21.2 101610 73
2006-07-03 09:44:30 51°16.392 2°53.529 4.9 18 21.2 101610 73
2006-07-03 09:44:35 51°16.391 2°53.527 5.2 18 21.2 101610 73
2006-07-03 09:44:40 51°16.391 2°53.525 4.8 18 21.2 101610 73
2006-07-03 09:44:45 51°16.39 2°53.523 4.8 18 21.2 101600 73
2006-07-03 09:44:50 51°16.389 2°53.52 4.4 20 21.2 101600 73
2006-07-03 09:44:55 51°16.389 2°53.518 5 20 21.2 101610 73
2006-07-03 09:45:00 51°16.388 2°53.516 5 20 21.2 101610 73
2006-07-03 09:45:05 51°16.388 2°53.514 4.4 18 21.2 101600 73
2006-07-03 09:45:10 51°16.387 2°53.511 4.7 17 21.2 101600 73
2006-07-03 09:45:15 51°16.387 2°53.509 4.8 17 21.2 101600 73
2006-07-03 09:45:20 51°16.386 2°53.507 4.3 18 21.2 101600 73
2006-07-03 09:45:25 51°16.386 2°53.505 4.7 17 21.2 101610 73
2006-07-03 09:45:30 51°16.385 2°53.502 4.8 15 21.2 101610 73
2006-07-03 09:45:36 51°16.384 2°53.499 4.4 16 21.2 101610 73
2006-07-03 09:45:40 51°16.384 2°53.498 4.8 15 21.2 101610 73
2006-07-03 09:45:45 51°16.384 2°53.495 4.4 14 21.2 101600 73
2006-07-03 09:45:50 51°16.383 2°53.493 4.8 13 21.2 101600 73
2006-07-03 09:45:54 51°16.383 2°53.491 4.7 15 21.2 101610 73
2006-07-03 09:46:00 51°16.382 2°53.488 4 15 21.2 101610 73
2006-07-03 09:46:05 51°16.382 2°53.486 4.9 12 21.2 101600 73
2006-07-03 09:46:10 51°16.381 2°53.484 4.8 13 21.2 101600 73
2006-07-03 09:46:15 51°16.381 2°53.482 4.7 10 21.2 101610 73
2006-07-03 09:46:20 51°16.38 2°53.48 5.1 10 21.2 101610 73
2006-07-03 09:46:23 51°16.38 2°53.479 4.7 13 21.2 101610 73
2006-07-03 09:46:30 51°16.379 2°53.476 4.6 12 21.2 101610 73
2006-07-03 09:46:35 51°16.378 2°53.474 4.6 13 21.2 101610 73
2006-07-03 09:46:40 51°16.378 2°53.472 4.4 14 21.2 101610 73
2006-07-03 09:46:45 51°16.377 2°53.47 4.8 11 21.2 101610 73
2006-07-03 09:46:50 51°16.376 2°53.467 4.7 11 21.2 101610 73
2006-07-03 09:46:54 51°16.376 2°53.466 4.5 10 21.2 101610 73
2006-07-03 09:46:59 51°16.375 2°53.463 4.4 13 21.2 101610 73
2006-07-03 09:47:04 51°16.375 2°53.461 4.5 11 21.2 101610 73
2006-07-03 09:47:10 51°16.374 2°53.458 4.7 14 21.2 101610 73
2006-07-03 09:47:15 51°16.374 2°53.456 4.4 11 21.2 101610 74
2006-07-03 09:47:20 51°16.373 2°53.454 4.3 11 21.2 101610 74
2006-07-03 09:47:25 51°16.373 2°53.451 4.6 11 21.2 101610 74
2006-07-03 09:47:30 51°16.372 2°53.449 4.3 14 21.2 101610 74
2006-07-03 09:47:34 51°16.372 2°53.447 4.4 11 21.2 101610 74
2006-07-03 09:47:40 51°16.371 2°53.445 4.9 15 21.2 101610 74
2006-07-03 09:47:45 51°16.371 2°53.442 4.8 14 21.2 101610 74
2006-07-03 09:47:50 51°16.37 2°53.44 4.6 13 21.2 101610 74
2006-07-03 09:47:54 51°16.37 2°53.438 4.9 12 21.2 101610 74
2006-07-03 09:48:00 51°16.369 2°53.435 4.7 13 21.2 101610 74
2006-07-03 09:48:05 51°16.369 2°53.433 4.5 14 21.2 101610 75
2006-07-03 09:48:10 51°16.368 2°53.431 4.5 13 21.2 101610 75
2006-07-03 09:48:15 51°16.368 2°53.428 4.7 10 21.1 101610 75
2006-07-03 09:48:20 51°16.368 2°53.426 5.1 14 21.1 101610 75
2006-07-03 09:48:25 51°16.368 2°53.423 4.4 15 21.1 101610 75
2006-07-03 09:48:30 51°16.367 2°53.42 4.9 15 21.1 101610 75
2006-07-03 09:48:35 51°16.367 2°53.418 4.7 16 21.1 101610 75
2006-07-03 09:48:40 51°16.366 2°53.416 4.9 16 21.1 101610 75
2006-07-03 09:48:45 51°16.366 2°53.414 5.2 9 21.1 101610 75
2006-07-03 09:48:50 51°16.365 2°53.412 4.7 14 21.1 101610 75
2006-07-03 09:48:54 51°16.365 2°53.41 4.2 12 21.1 101610 76
2006-07-03 09:49:00 51°16.364 2°53.408 4.3 13 21.1 101610 76
2006-07-03 09:49:05 51°16.364 2°53.405 4.7 15 21.1 101610 76
2006-07-03 09:49:10 51°16.363 2°53.403 4.8 16 21.1 101610 76
2006-07-03 09:49:15 51°16.363 2°53.401 4.4 14 21 101600 76
2006-07-03 09:49:20 51°16.362 2°53.399 4.8 12 21 101600 76
2006-07-03 09:49:25 51°16.362 2°53.397 4.3 13 21 101610 76
2006-07-03 09:49:30 51°16.361 2°53.395 4.3 15 21 101610 76
2006-07-03 09:49:35 51°16.361 2°53.392 4.7 12 21 101610 76
2006-07-03 09:49:40 51°16.36 2°53.391 4.7 9 21 101610 76
2006-07-03 09:49:44 51°16.359 2°53.389 4.8 11 21 101610 76
2006-07-03 09:49:50 51°16.358 2°53.386 5.2 9 21 101610 76
2006-07-03 09:49:55 51°16.358 2°53.384 4.8 13 21 101610 76
2006-07-03 09:50:00 51°16.357 2°53.382 4.7 14 21 101610 76
2006-07-03 09:50:05 51°16.357 2°53.379 4.7 10 21 101610 76
2006-07-03 09:50:10 51°16.356 2°53.377 5.3 11 21 101610 76
2006-07-03 09:50:15 51°16.356 2°53.375 4.8 14 21 101610 76
2006-07-03 09:50:20 51°16.355 2°53.372 5 13 21 101610 76
2006-07-03 09:50:25 51°16.355 2°53.37 4.6 12 21 101610 76
2006-07-03 09:50:30 51°16.355 2°53.367 4.8 13 21 101610 76
2006-07-03 09:50:34 51°16.354 2°53.365 4.7 11 21 101610 76
2006-07-03 09:50:41 51°16.353 2°53.361 5.1 17 21 101610 76
2006-07-03 09:50:45 51°16.353 2°53.36 4.7 11 21 101610 76
2006-07-03 09:50:50 51°16.353 2°53.357 4.7 14 21 101610 76
2006-07-03 09:50:54 51°16.352 2°53.355 4.6 11 21 101610 76
2006-07-03 09:51:00 51°16.351 2°53.352 5 13 21 101610 76
2006-07-03 09:51:05 51°16.351 2°53.35 4.3 14 21 101610 77
2006-07-03 09:51:10 51°16.35 2°53.347 5 12 21 101610 77
2006-07-03 09:51:15 51°16.35 2°53.345 4.9 18 21 101610 77
2006-07-03 09:51:20 51°16.35 2°53.343 4.8 16 21 101610 77
2006-07-03 09:51:24 51°16.349 2°53.341 4.2 12 21 101610 77
2006-07-03 09:51:29 51°16.349 2°53.338 4.8 11 21 101610 77
2006-07-03 09:51:35 51°16.348 2°53.335 5.2 13 21 101610 77
2006-07-03 09:51:40 51°16.347 2°53.333 4.8 15 21 101610 77
2006-07-03 09:51:45 51°16.347 2°53.331 4.7 14 21 101610 77
2006-07-03 09:51:50 51°16.347 2°53.329 4.9 13 21 101610 77
2006-07-03 09:51:55 51°16.346 2°53.327 4.6 14 21 101610 77
2006-07-03 09:52:00 51°16.346 2°53.324 5.3 12 21 101610 77
2006-07-03 09:52:05 51°16.345 2°53.322 4.9 12 20.9 101610 77
2006-07-03 09:52:10 51°16.344 2°53.319 4.9 11 20.9 101610 77
2006-07-03 09:52:14 51°16.344 2°53.318 4.9 11 21 101610 77
2006-07-03 09:52:20 51°16.343 2°53.315 4.9 13 21 101610 77
2006-07-03 09:52:25 51°16.343 2°53.312 4.7 11 20.9 101610 78
2006-07-03 09:52:30 51°16.342 2°53.31 5 12 20.9 101610 78
2006-07-03 09:52:35 51°16.341 2°53.307 4.9 11 20.9 101610 78
2006-07-03 09:52:40 51°16.341 2°53.305 5 11 20.9 101610 78
2006-07-03 09:52:45 51°16.34 2°53.302 5.1 12 21 101610 78
2006-07-03 09:52:50 51°16.34 2°53.3 4.5 12 21 101610 78
2006-07-03 09:52:55 51°16.339 2°53.297 5.2 10 21 101610 78
2006-07-03 09:53:00 51°16.338 2°53.295 4.4 13 21 101610 78
2006-07-03 09:53:05 51°16.338 2°53.292 5.1 12 21 101610 78
2006-07-03 09:53:10 51°16.337 2°53.29 4.9 11 21 101610 78
2006-07-03 09:53:14 51°16.337 2°53.288 4.8 11 21 101610 78
2006-07-03 09:53:20 51°16.336 2°53.285 4.5 10 21 101610 78
2006-07-03 09:53:24 51°16.335 2°53.283 4.1 11 20.9 101610 79
2006-07-03 09:53:30 51°16.335 2°53.28 4.7 13 20.9 101610 79
2006-07-03 09:53:35 51°16.334 2°53.278 4.5 9 21 101600 79
2006-07-03 09:53:40 51°16.334 2°53.275 4.8 10 21 101600 79
2006-07-03 09:53:45 51°16.333 2°53.273 4.7 12 20.9 101610 79
2006-07-03 09:53:50 51°16.332 2°53.271 5 11 20.9 101610 79
2006-07-03 09:53:55 51°16.332 2°53.269 4.8 11 20.9 101600 79
2006-07-03 09:54:00 51°16.331 2°53.267 4.8 9 20.9 101600 79
2006-07-03 09:54:05 51°16.33 2°53.265 4.6 12 20.9 101610 79
2006-07-03 09:54:10 51°16.329 2°53.263 4.6 9 20.9 101610 79
2006-07-03 09:54:15 51°16.329 2°53.26 4.2 14 20.9 101600 79
2006-07-03 09:54:20 51°16.328 2°53.257 4.6 12 20.9 101600 79
2006-07-03 09:54:25 51°16.328 2°53.255 4.6 10 20.9 101610 79
2006-07-03 09:54:30 51°16.327 2°53.252 4.7 12 20.9 101610 79
2006-07-03 09:54:35 51°16.327 2°53.25 5.2 11 20.9 101610 79
2006-07-03 09:54:40 51°16.326 2°53.247 5 10 20.9 101610 79
2006-07-03 09:54:45 51°16.326 2°53.244 4.9 12 20.9 101610 79
2006-07-03 09:54:50 51°16.325 2°53.242 4.9 15 20.9 101610 79
2006-07-03 09:54:55 51°16.325 2°53.239 4.7 14 20.9 101600 79
2006-07-03 09:55:00 51°16.324 2°53.237 4.8 10 20.9 101600 79
2006-07-03 09:55:05 51°16.324 2°53.234 4.4 14 20.9 101610 79
2006-07-03 09:55:10 51°16.323 2°53.232 4.4 15 20.9 101610 79
2006-07-03 09:55:14 51°16.323 2°53.23 4.8 13 20.9 101600 79
2006-07-03 09:55:19 51°16.323 2°53.227 4.7 17 20.9 101600 79
2006-07-03 09:55:25 51°16.322 2°53.224 4.3 14 20.9 101600 79
2006-07-03 09:55:30 51°16.322 2°53.221 4.5 15 20.9 101600 79
2006-07-03 09:55:34 51°16.321 2°53.219 4.6 10 20.9 101600 79
2006-07-03 09:55:40 51°16.32 2°53.216 4.5 17 20.9 101600 79
2006-07-03 09:55:45 51°16.32 2°53.214 4.9 12 20.8 101600 79
2006-07-03 09:55:50 51°16.319 2°53.211 4.6 14 20.8 101600 79
2006-07-03 09:55:55 51°16.319 2°53.209 4.5 13 20.9 101610 80
2006-07-03 09:56:00 51°16.318 2°53.206 4.5 15 20.9 101610 80
2006-07-03 09:56:05 51°16.318 2°53.204 4.6 10 20.8 101600 80
2006-07-03 09:56:10 51°16.317 2°53.201 4.7 14 20.8 101600 80
2006-07-03 09:56:15 51°16.317 2°53.198 4.6 14 20.9 101600 80
2006-07-03 09:56:21 51°16.316 2°53.195 4.6 10 20.9 101600 80
2006-07-03 09:56:25 51°16.316 2°53.193 4.7 16 20.9 101600 80
2006-07-03 09:56:31 51°16.315 2°53.19 4.7 13 20.9 101600 80
2006-07-03 09:56:34 51°16.315 2°53.189 4.1 14 20.8 101600 80
2006-07-03 09:56:39 51°16.314 2°53.186 4.3 14 20.8 101600 80
2006-07-03 09:56:45 51°16.314 2°53.183 4.7 13 20.8 101610 80
2006-07-03 09:56:50 51°16.313 2°53.181 4.6 12 20.8 101610 80
2006-07-03 09:56:56 51°16.312 2°53.178 4.6 15 20.8 101610 80
2006-07-03 09:57:00 51°16.312 2°53.175 4.9 13 20.8 101610 80
2006-07-03 09:57:05 51°16.311 2°53.173 5.1 14 20.8 101600 80
2006-07-03 09:57:10 51°16.311 2°53.17 4.5 13 20.8 101600 80
2006-07-03 09:57:15 51°16.31 2°53.168 4.9 12 20.9 101600 80
2006-07-03 09:57:20 51°16.31 2°53.165 4.7 14 20.9 101600 80
2006-07-03 09:57:25 51°16.309 2°53.163 4.5 15 20.8 101600 80
2006-07-03 09:57:30 51°16.308 2°53.16 4.4 14 20.8 101600 80
2006-07-03 09:57:35 51°16.308 2°53.158 5.5 10 20.8 101600 80
2006-07-03 09:57:40 51°16.307 2°53.155 4.6 13 20.8 101600 80
2006-07-03 09:57:45 51°16.307 2°53.153 4.6 17 20.8 101600 80
2006-07-03 09:57:50 51°16.306 2°53.15 5 17 20.8 101600 80
2006-07-03 09:57:55 51°16.305 2°53.148 4.7 13 20.8 101600 80
2006-07-03 09:58:00 51°16.305 2°53.145 4.8 14 20.8 101600 80
2006-07-03 09:58:05 51°16.304 2°53.142 4.9 16 20.9 101600 80
2006-07-03 09:58:10 51°16.304 2°53.14 4.8 14 20.9 101600 80
2006-07-03 09:58:15 51°16.303 2°53.138 4.8 15 20.8 101600 80
2006-07-03 09:58:20 51°16.303 2°53.135 4.6 15 20.8 101600 80
2006-07-03 09:58:25 51°16.302 2°53.132 4.3 17 20.8 101600 80
2006-07-03 09:58:30 51°16.301 2°53.13 4.6 16 20.8 101600 80
2006-07-03 09:58:35 51°16.301 2°53.127 4.6 16 20.9 101600 80
2006-07-03 09:58:40 51°16.3 2°53.125 4.6 17 20.9 101600 80
2006-07-03 09:58:44 51°16.3 2°53.123 4.4 15 20.9 101600 80
2006-07-03 09:58:50 51°16.299 2°53.12 4.2 17 20.9 101600 80
2006-07-03 09:58:54 51°16.299 2°53.118 4.1 15 20.9 101600 80
2006-07-03 09:59:00 51°16.298 2°53.115 4.2 14 20.9 101600 80
2006-07-03 09:59:05 51°16.297 2°53.112 4.8 16 20.9 101600 81
2006-07-03 09:59:10 51°16.297 2°53.11 4.5 14 20.9 101600 81
2006-07-03 09:59:14 51°16.296 2°53.108 4.1 15 20.9 101600 80
2006-07-03 09:59:20 51°16.295 2°53.105 4.6 15 20.9 101600 80
2006-07-03 09:59:25 51°16.295 2°53.102 4.2 13 20.9 101600 80
2006-07-03 09:59:30 51°16.294 2°53.1 4.1 17 20.9 101600 80
2006-07-03 09:59:34 51°16.294 2°53.098 4.6 13 20.9 101600 80
2006-07-03 09:59:40 51°16.293 2°53.095 4.1 16 20.9 101600 80
2006-07-03 09:59:45 51°16.292 2°53.093 4 16 20.9 101600 80
2006-07-03 09:59:50 51°16.292 2°53.09 3.8 14 20.9 101600 80
2006-07-03 09:59:54 51°16.291 2°53.088 3.5 15 20.9 101600 81
2006-07-03 10:00:00 51°16.29 2°53.085 3.9 13 20.9 101600 81
2006-07-03 10:00:05 51°16.29 2°53.083 4.2 14 20.9 101600 81
2006-07-03 10:00:10 51°16.289 2°53.08 4.3 15 20.9 101600 81
2006-07-03 10:00:14 51°16.289 2°53.078 4.1 14 20.9 101600 81
2006-07-03 10:00:20 51°16.288 2°53.075 3.9 13 20.9 101600 81
2006-07-03 10:00:24 51°16.288 2°53.073 4.3 17 20.9 101600 81
2006-07-03 10:00:30 51°16.287 2°53.07 3.9 15 20.9 101600 81
2006-07-03 10:00:33 51°16.287 2°53.069 4.1 12 20.9 101600 81
2006-07-03 10:00:39 51°16.286 2°53.066 4.5 11 20.9 101600 81
2006-07-03 10:00:45 51°16.286 2°53.063 4.3 11 20.9 101600 81
2006-07-03 10:00:50 51°16.285 2°53.06 4.2 14 20.9 101600 81
2006-07-03 10:00:54 51°16.284 2°53.058 4.4 15 20.9 101600 81
2006-07-03 10:01:00 51°16.284 2°53.055 4.1 15 20.9 101600 81
2006-07-03 10:01:05 51°16.283 2°53.052 4.1 17 20.9 101600 81
2006-07-03 10:01:10 51°16.282 2°53.05 4.5 13 20.9 101600 81
2006-07-03 10:01:15 51°16.282 2°53.048 4.8 14 20.9 101600 81
2006-07-03 10:01:20 51°16.281 2°53.045 4.6 17 20.9 101600 81
2006-07-03 10:01:25 51°16.281 2°53.043 4.6 14 20.9 101600 81
2006-07-03 10:01:30 51°16.28 2°53.04 5.3 17 20.9 101600 81
2006-07-03 10:01:33 51°16.28 2°53.038 5 15 20.9 101600 81
2006-07-03 10:01:40 51°16.279 2°53.035 5.1 15 20.9 101600 81
2006-07-03 10:01:45 51°16.278 2°53.032 4.9 10 20.9 101600 81
2006-07-03 10:01:50 51°16.278 2°53.03 5.3 14 20.9 101600 81
2006-07-03 10:01:54 51°16.277 2°53.028 5.4 14 20.9 101600 81
2006-07-03 10:01:59 51°16.277 2°53.025 5.3 13 20.9 101600 81
2006-07-03 10:02:05 51°16.276 2°53.022 5 15 20.9 101600 81
2006-07-03 10:02:10 51°16.276 2°53.02 5 12 20.9 101600 81
2006-07-03 10:02:15 51°16.275 2°53.017 5.5 13 20.8 101600 81
2006-07-03 10:02:20 51°16.275 2°53.015 5.2 14 20.8 101600 81
2006-07-03 10:02:25 51°16.274 2°53.012 5.4 12 20.8 101600 81
2006-07-03 10:02:30 51°16.273 2°53.01 5.5 12 20.8 101600 81
2006-07-03 10:02:34 51°16.273 2°53.008 5 13 20.9 101600 81
2006-07-03 10:02:40 51°16.272 2°53.005 4.7 12 20.9 101600 81
2006-07-03 10:02:44 51°16.272 2°53.003 5.2 12 20.8 101600 81
2006-07-03 10:02:50 51°16.271 2°53 5.1 10 20.8 101600 81
2006-07-03 10:02:54 51°16.27 2°52.997 5.1 13 20.8 101600 81
2006-07-03 10:03:00 51°16.269 2°52.994 5 15 20.8 101600 81
2006-07-03 10:03:05 51°16.269 2°52.992 4.8 11 20.8 101600 81
2006-07-03 10:03:10 51°16.268 2°52.989 5.4 14 20.8 101600 81
2006-07-03 10:03:15 51°16.268 2°52.986 4.7 12 20.8 101600 81
2006-07-03 10:03:20 51°16.267 2°52.984 4.8 14 20.8 101600 81
2006-07-03 10:03:25 51°16.266 2°52.981 4.8 12 20.8 101600 81
2006-07-03 10:03:30 51°16.266 2°52.978 5.1 10 20.8 101600 81
2006-07-03 10:03:35 51°16.265 2°52.976 5.2 10 20.9 101600 81
2006-07-03 10:03:40 51°16.265 2°52.973 5.2 12 20.9 101600 81
2006-07-03 10:03:45 51°16.264 2°52.971 4.7 12 20.9 101600 81
2006-07-03 10:03:50 51°16.263 2°52.968 4.6 8 20.9 101600 81
2006-07-03 10:03:56 51°16.263 2°52.965 4.6 15 20.9 101600 81
2006-07-03 10:04:00 51°16.262 2°52.963 4.9 13 20.9 101600 81
2006-07-03 10:04:05 51°16.261 2°52.96 5.1 11 20.8 101600 81
2006-07-03 10:04:10 51°16.261 2°52.958 4.8 14 20.8 101600 81
2006-07-03 10:04:15 51°16.26 2°52.955 4.6 14 20.9 101600 81
2006-07-03 10:04:20 51°16.26 2°52.952 4.8 11 20.9 101600 81
2006-07-03 10:04:25 51°16.259 2°52.95 4.9 14 20.9 101600 81
2006-07-03 10:04:30 51°16.258 2°52.947 4.9 12 20.9 101600 81
2006-07-03 10:04:35 51°16.257 2°52.945 4.5 12 20.9 101600 81
2006-07-03 10:04:40 51°16.257 2°52.942 4.6 12 20.9 101600 81
2006-07-03 10:04:45 51°16.256 2°52.94 4.8 11 20.8 101600 81
2006-07-03 10:04:50 51°16.256 2°52.937 4.7 9 20.8 101600 81
2006-07-03 10:04:55 51°16.255 2°52.935 5.3 10 20.9 101600 81
2006-07-03 10:05:00 51°16.254 2°52.932 5 10 20.9 101600 81
2006-07-03 10:05:04 51°16.254 2°52.93 4.9 14 20.8 101600 81
2006-07-03 10:05:10 51°16.253 2°52.927 5.2 12 20.8 101600 81
2006-07-03 10:05:14 51°16.253 2°52.925 4.9 9 20.9 101600 81
2006-07-03 10:05:20 51°16.252 2°52.922 4.8 13 20.9 101600 81
2006-07-03 10:05:25 51°16.251 2°52.919 4.7 11 20.9 101600 81
2006-07-03 10:05:30 51°16.251 2°52.916 4.7 12 20.9 101600 81
2006-07-03 10:05:34 51°16.25 2°52.914 5.1 10 20.8 101600 81
2006-07-03 10:05:40 51°16.249 2°52.912 5.3 10 20.8 101600 81
2006-07-03 10:05:45 51°16.249 2°52.909 4.8 8 20.8 101600 81
2006-07-03 10:05:50 51°16.248 2°52.907 4.6 10 20.8 101600 81
2006-07-03 10:05:55 51°16.248 2°52.904 4.9 9 20.8 101600 81
2006-07-03 10:06:00 51°16.247 2°52.902 5.1 9 20.8 101600 81
2006-07-03 10:06:05 51°16.246 2°52.899 4.9 9 20.9 101600 81
2006-07-03 10:06:10 51°16.246 2°52.896 4.7 13 20.9 101600 81
2006-07-03 10:06:14 51°16.245 2°52.895 4.9 10 20.9 101600 81
2006-07-03 10:06:20 51°16.244 2°52.892 4.8 9 20.9 101600 81
2006-07-03 10:06:24 51°16.243 2°52.89 5.1 8 20.9 101600 81
2006-07-03 10:06:30 51°16.242 2°52.887 5.1 10 20.9 101600 81
2006-07-03 10:06:34 51°16.242 2°52.885 5 10 20.8 101600 81
2006-07-03 10:06:40 51°16.242 2°52.882 4.6 12 20.8 101600 81
2006-07-03 10:06:45 51°16.241 2°52.88 4.9 11 20.8 101600 81
2006-07-03 10:06:50 51°16.24 2°52.877 4.6 13 20.8 101600 81
2006-07-03 10:06:55 51°16.239 2°52.875 4.9 9 20.8 101600 81
2006-07-03 10:07:00 51°16.239 2°52.872 5 11 20.8 101600 81
2006-07-03 10:07:05 51°16.238 2°52.87 5 11 20.8 101600 81
2006-07-03 10:07:10 51°16.237 2°52.867 4.9 10 20.8 101600 82
2006-07-03 10:07:14 51°16.236 2°52.865 4.5 12 20.8 101600 82
2006-07-03 10:07:20 51°16.236 2°52.863 4.5 10 20.8 101600 82
2006-07-03 10:07:25 51°16.235 2°52.86 4.5 11 20.8 101600 82
2006-07-03 10:07:30 51°16.234 2°52.858 4.9 14 20.8 101600 82
2006-07-03 10:07:35 51°16.233 2°52.855 5 11 20.8 101600 82
2006-07-03 10:07:39 51°16.233 2°52.853 5 13 20.8 101600 82
2006-07-03 10:07:45 51°16.232 2°52.85 5.1 9 20.8 101600 82
2006-07-03 10:07:50 51°16.231 2°52.848 5.1 10 20.8 101600 82
2006-07-03 10:07:54 51°16.231 2°52.846 5 12 20.8 101600 82
2006-07-03 10:08:00 51°16.23 2°52.843 5 9 20.8 101600 82
2006-07-03 10:08:05 51°16.229 2°52.84 5.1 9 20.8 101590 82
2006-07-03 10:08:10 51°16.228 2°52.838 5.9 10 20.8 101590 82
2006-07-03 10:08:15 51°16.227 2°52.835 5.7 11 20.8 101600 82
2006-07-03 10:08:20 51°16.227 2°52.833 5.3 12 20.8 101600 82
2006-07-03 10:08:25 51°16.226 2°52.83 5.6 10 20.8 101600 82
2006-07-03 10:08:30 51°16.225 2°52.828 5.4 11 20.8 101600 82
2006-07-03 10:08:35 51°16.225 2°52.825 5.4 12 20.8 101590 82
2006-07-03 10:08:40 51°16.224 2°52.823 5.4 13 20.8 101590 82
2006-07-03 10:08:45 51°16.223 2°52.82 5.4 11 20.8 101600 82
2006-07-03 10:08:50 51°16.222 2°52.818 5 12 20.8 101600 82
2006-07-03 10:08:55 51°16.222 2°52.815 4.9 12 20.8 101600 82
2006-07-03 10:09:00 51°16.221 2°52.813 5.2 12 20.8 101600 82
2006-07-03 10:09:05 51°16.22 2°52.81 5.3 13 20.8 101600 82
2006-07-03 10:09:10 51°16.219 2°52.808 5.4 14 20.8 101600 82
2006-07-03 10:09:14 51°16.219 2°52.806 5.1 15 20.8 101590 82
2006-07-03 10:09:20 51°16.218 2°52.803 4.8 13 20.8 101590 82
2006-07-03 10:09:25 51°16.218 2°52.8 5 15 20.8 101600 82
2006-07-03 10:09:30 51°16.217 2°52.797 5.5 14 20.8 101600 82
2006-07-03 10:09:34 51°16.217 2°52.795 5.7 11 20.8 101600 82
2006-07-03 10:09:40 51°16.217 2°52.791 5.3 9 20.8 101600 82
2006-07-03 10:09:45 51°16.218 2°52.788 5.6 8 20.8 101600 82
2006-07-03 10:09:50 51°16.219 2°52.784 5.6 4 20.8 101600 82
2006-07-03 10:09:54 51°16.221 2°52.781 5.3 4 20.8 101590 82
2006-07-03 10:10:00 51°16.223 2°52.777 5.4 1 20.8 101590 82
2006-07-03 10:10:05 51°16.226 2°52.773 6.2 358 20.8 101590 81
2006-07-03 10:10:10 51°16.229 2°52.77 6 356 20.8 101590 81
2006-07-03 10:10:14 51°16.232 2°52.769 6.2 -999 20.8 101590 81
2006-07-03 10:10:20 51°16.236 2°52.766 6.2 350 20.8 101590 81
2006-07-03 10:10:25 51°16.24 2°52.765 6.5 349 20.8 101590 81
2006-07-03 10:10:30 51°16.244 2°52.764 6.6 346 20.8 101590 81
2006-07-03 10:10:35 51°16.248 2°52.764 7 282 20.8 101590 81
2006-07-03 10:10:40 51°16.252 2°52.764 6.8 344 20.8 101590 81
2006-07-03 10:10:45 51°16.257 2°52.766 6.5 283 20.8 101590 81
2006-07-03 10:10:50 51°16.261 2°52.767 7 339 20.8 101590 81
2006-07-03 10:10:55 51°16.265 2°52.77 7.1 283 20.8 101590 81
2006-07-03 10:11:00 51°16.269 2°52.774 7.2 335 20.8 101590 81
2006-07-03 10:11:04 51°16.272 2°52.777 7.3 278 20.8 101590 81
2006-07-03 10:11:10 51°16.276 2°52.782 7.3 333 20.8 101590 81
2006-07-03 10:11:14 51°16.279 2°52.787 7.2 331 20.8 101590 82
2006-07-03 10:11:20 51°16.282 2°52.794 7.3 328 20.8 101590 82
2006-07-03 10:11:25 51°16.284 2°52.8 7.3 278 20.8 101590 82
2006-07-03 10:11:30 51°16.285 2°52.806 7.5 322 20.8 101590 82
2006-07-03 10:11:35 51°16.286 2°52.813 7 277 20.8 101590 82
2006-07-03 10:11:40 51°16.285 2°52.82 7.1 318 20.8 101590 82
2006-07-03 10:11:45 51°16.285 2°52.827 6.8 285 20.9 101590 81
2006-07-03 10:11:50 51°16.284 2°52.834 7.5 39 20.9 101590 81
2006-07-03 10:11:55 51°16.282 2°52.841 7.8 278 20.9 101590 81
2006-07-03 10:12:00 51°16.28 2°52.848 7.4 39 20.9 101590 81
2006-07-03 10:12:05 51°16.277 2°52.855 7.9 283 20.9 101580 81
2006-07-03 10:12:10 51°16.275 2°52.862 8.1 231 20.9 101580 81
2006-07-03 10:12:14 51°16.272 2°52.868 7.9 27 20.9 101590 81
2006-07-03 10:12:19 51°16.269 2°52.876 7.7 35 20.9 101590 81
2006-07-03 10:12:25 51°16.265 2°52.885 7.6 281 20.9 101580 81
2006-07-03 10:12:30 51°16.262 2°52.893 7.8 34 20.9 101580 81
2006-07-03 10:12:35 51°16.258 2°52.9 8.3 283 21 101580 81
2006-07-03 10:12:40 51°16.255 2°52.909 7.9 233 21 101580 81
2006-07-03 10:12:44 51°16.252 2°52.915 8.5 278 21 101580 80
2006-07-03 10:12:50 51°16.248 2°52.925 8.2 36 21 101580 80
2006-07-03 10:12:54 51°16.245 2°52.932 8.1 283 21 101580 80
2006-07-03 10:13:01 51°16.24 2°52.944 7.8 33 21 101580 80
2006-07-03 10:13:04 51°16.238 2°52.95 8 283 21 101580 80
2006-07-03 10:13:09 51°16.234 2°52.959 8.1 35 21 101580 80
2006-07-03 10:13:14 51°16.231 2°52.968 8 25 21 101580 80
2006-07-03 10:13:20 51°16.228 2°52.979 7.9 34 21 101580 80
2006-07-03 10:13:25 51°16.225 2°52.989 8.1 285 21.1 101580 80
2006-07-03 10:13:30 51°16.223 2°52.999 8.3 34 21.1 101580 80
2006-07-03 10:13:34 51°16.221 2°53.007 8.1 283 21.1 101580 79
2006-07-03 10:13:40 51°16.219 2°53.018 8.3 34 21.1 101580 79
2006-07-03 10:13:45 51°16.217 2°53.028 7.8 279 21.1 101580 79
2006-07-03 10:13:50 51°16.215 2°53.038 7.7 39 21.1 101580 79
2006-07-03 10:13:54 51°16.214 2°53.046 8.2 278 21.1 101580 79
2006-07-03 10:14:00 51°16.212 2°53.059 7.8 41 21.1 101580 79
2006-07-03 10:14:05 51°16.211 2°53.069 8 281 21.1 101580 79
2006-07-03 10:14:10 51°16.21 2°53.08 8.2 40 21.1 101580 79